Henry Post Army Air Field (Fort Sill)
KFSI : now visible

Airfield :











YOU CAN JOIN US ON...

 
LOGIN :

Register | Disclaimer

   EN    FR    IT 

 









Legend :    VFR   Marginal VFR   IFR   Intensive IFR   Very Intensive IFR
Visi :
Ceiling :
>= 8 km
>= 3000ft
5 to 8 km
1000 to 3000 ft
1500m to 5 km
500 to 1000 ft
800 to 1500m
200 to 500 ft
< 800m
< 200 ft
Symbols :   Thunderstorms  Fog  Heavy snow  Heavy precipitations  Wind > 20 kt






- Airport Elevation : 1189 ft


KFSI - Henry Post Army Air Field (Fort Sill)

EXPIRED METARs :
  • 110257Z 14006KT 10SM CLR 29/19 A2989 RMK AO2A SLP110 53015

TAF TAF KFSI
Valid from the 10 at 21:00 until the 12 at 03:00 UTC


102100Z 1021/1203 19012G18KT 9999 FEW150 QNH2985INS
BECMG 1023/1024 18009KT 9999 SKC QNH2985INS
BECMG 1115/1116 19012G18KT 9999 BKN090 QNH2983INS
BECMG 1123/1124 18012KT 9999 FEW150 QNH2983INS TX38/1120Z TN26/1112Z LAST NO AMDS AFT 1103 NEXT 1113
KZFW FIR / North America



MET'MAP, your aeronautical weather chart ! - Copyright ORBIFLY December 2007 - Disclaimer

ORBIFLY MET'MAP TEAM :

Programming & Development : Alexandra Zaïnal
Concept & original design : Baudouin d'Aumeries
Assistance for programming : Marc-Olivier Méhu
Technical & hardware support : Manuel Goepfert

Contact : metmap@orbifly.com




SOURCES & CREDITS :

   NOAA       Earth
Advisory